sensor_id;sensor_type;location;lat;lon;timestamp;P1;durP1;ratioP1;P2;durP2;ratioP2
1360;SDS011;674;45.552;-122.600;2023-03-08T00:01:23;2.53;;;1.40;;
1360;SDS011;674;45.552;-122.600;2023-03-08T00:03:54;2.40;;;1.20;;
1360;SDS011;674;45.552;-122.600;2023-03-08T00:06:24;3.90;;;1.33;;
1360;SDS011;674;45.552;-122.600;2023-03-08T00:08:55;2.57;;;1.30;;
1360;SDS011;674;45.552;-122.600;2023-03-08T00:11:24;2.63;;;1.43;;
1360;SDS011;674;45.552;-122.600;2023-03-08T00:13:54;2.33;;;1.33;;
1360;SDS011;674;45.552;-122.600;2023-03-08T00:16:23;2.03;;;1.00;;
1360;SDS011;674;45.552;-122.600;2023-03-08T00:18:51;3.20;;;1.10;;
1360;SDS011;674;45.552;-122.600;2023-03-08T00:21:20;2.17;;;0.97;;
1360;SDS011;674;45.552;-122.600;2023-03-08T00:23:52;2.33;;;1.23;;
1360;SDS011;674;45.552;-122.600;2023-03-08T00:26:21;2.20;;;1.20;;
1360;SDS011;674;45.552;-122.600;2023-03-08T00:28:50;3.33;;;1.67;;
1360;SDS011;674;45.552;-122.600;2023-03-08T00:31:19;2.40;;;1.30;;
1360;SDS011;674;45.552;-122.600;2023-03-08T00:33:52;2.87;;;1.50;;
1360;SDS011;674;45.552;-122.600;2023-03-08T00:36:22;3.30;;;1.47;;
1360;SDS011;674;45.552;-122.600;2023-03-08T00:38:50;3.60;;;1.20;;
1360;SDS011;674;45.552;-122.600;2023-03-08T00:41:19;2.50;;;1.27;;
1360;SDS011;674;45.552;-122.600;2023-03-08T00:43:47;3.03;;;1.77;;
1360;SDS011;674;45.552;-122.600;2023-03-08T00:46:16;2.90;;;1.80;;
1360;SDS011;674;45.552;-122.600;2023-03-08T00:48:45;2.77;;;1.43;;
1360;SDS011;674;45.552;-122.600;2023-03-08T00:51:14;2.80;;;1.50;;
1360;SDS011;674;45.552;-122.600;2023-03-08T00:53:45;2.83;;;1.40;;
1360;SDS011;674;45.552;-122.600;2023-03-08T00:56:15;2.30;;;1.43;;
1360;SDS011;674;45.552;-122.600;2023-03-08T00:58:44;5.00;;;1.40;;
1360;SDS011;674;45.552;-122.600;2023-03-08T01:01:13;3.53;;;1.43;;
1360;SDS011;674;45.552;-122.600;2023-03-08T01:03:44;2.40;;;1.50;;
1360;SDS011;674;45.552;-122.600;2023-03-08T01:06:13;2.70;;;1.43;;
1360;SDS011;674;45.552;-122.600;2023-03-08T01:08:42;3.10;;;1.40;;
1360;SDS011;674;45.552;-122.600;2023-03-08T01:11:19;3.03;;;1.67;;
1360;SDS011;674;45.552;-122.600;2023-03-08T01:13:50;3.13;;;1.50;;
1360;SDS011;674;45.552;-122.600;2023-03-08T01:16:20;2.83;;;2.13;;
1360;SDS011;674;45.552;-122.600;2023-03-08T01:18:52;3.10;;;1.70;;
1360;SDS011;674;45.552;-122.600;2023-03-08T01:21:20;2.40;;;1.53;;
1360;SDS011;674;45.552;-122.600;2023-03-08T01:23:50;3.10;;;1.80;;
1360;SDS011;674;45.552;-122.600;2023-03-08T01:26:21;2.83;;;1.80;;
1360;SDS011;674;45.552;-122.600;2023-03-08T01:28:51;3.63;;;1.93;;
1360;SDS011;674;45.552;-122.600;2023-03-08T01:31:21;3.23;;;1.90;;
1360;SDS011;674;45.552;-122.600;2023-03-08T01:33:51;3.47;;;1.90;;
1360;SDS011;674;45.552;-122.600;2023-03-08T01:36:21;3.80;;;1.63;;
1360;SDS011;674;45.552;-122.600;2023-03-08T01:38:51;3.83;;;2.10;;
1360;SDS011;674;45.552;-122.600;2023-03-08T01:41:24;3.07;;;1.70;;
1360;SDS011;674;45.552;-122.600;2023-03-08T01:43:54;2.70;;;1.80;;
1360;SDS011;674;45.552;-122.600;2023-03-08T01:46:25;3.70;;;2.00;;
1360;SDS011;674;45.552;-122.600;2023-03-08T01:49:12;3.00;;;1.80;;
1360;SDS011;674;45.552;-122.600;2023-03-08T01:54:43;3.77;;;2.20;;
1360;SDS011;674;45.552;-122.600;2023-03-08T01:57:26;3.27;;;1.80;;
1360;SDS011;674;45.552;-122.600;2023-03-08T02:00:21;3.97;;;2.10;;
1360;SDS011;674;45.552;-122.600;2023-03-08T02:02:51;3.87;;;2.50;;
1360;SDS011;674;45.552;-122.600;2023-03-08T02:05:23;4.10;;;2.30;;
1360;SDS011;674;45.552;-122.600;2023-03-08T02:07:52;4.23;;;2.80;;
1360;SDS011;674;45.552;-122.600;2023-03-08T02:10:20;6.27;;;3.80;;
1360;SDS011;674;45.552;-122.600;2023-03-08T02:12:49;5.60;;;3.80;;
1360;SDS011;674;45.552;-122.600;2023-03-08T02:15:19;3.70;;;2.47;;
1360;SDS011;674;45.552;-122.600;2023-03-08T02:17:48;7.83;;;3.13;;
1360;SDS011;674;45.552;-122.600;2023-03-08T02:20:18;5.13;;;2.40;;
1360;SDS011;674;45.552;-122.600;2023-03-08T02:23:15;4.00;;;2.60;;
1360;SDS011;674;45.552;-122.600;2023-03-08T02:25:54;5.40;;;2.50;;
1360;SDS011;674;45.552;-122.600;2023-03-08T02:28:29;6.90;;;3.10;;
1360;SDS011;674;45.552;-122.600;2023-03-08T02:30:58;3.80;;;2.17;;
1360;SDS011;674;45.552;-122.600;2023-03-08T02:33:27;4.60;;;2.80;;
1360;SDS011;674;45.552;-122.600;2023-03-08T02:35:57;4.03;;;2.47;;
1360;SDS011;674;45.552;-122.600;2023-03-08T02:38:27;4.70;;;2.40;;
1360;SDS011;674;45.552;-122.600;2023-03-08T02:40:56;5.10;;;2.50;;
1360;SDS011;674;45.552;-122.600;2023-03-08T02:43:24;4.53;;;2.63;;
1360;SDS011;674;45.552;-122.600;2023-03-08T02:45:53;6.83;;;2.50;;
1360;SDS011;674;45.552;-122.600;2023-03-08T02:48:22;4.73;;;2.40;;
1360;SDS011;674;45.552;-122.600;2023-03-08T02:50:50;3.90;;;2.27;;
1360;SDS011;674;45.552;-122.600;2023-03-08T02:53:19;3.23;;;2.30;;
1360;SDS011;674;45.552;-122.600;2023-03-08T02:55:47;3.60;;;2.40;;
1360;SDS011;674;45.552;-122.600;2023-03-08T02:58:16;4.03;;;2.03;;
1360;SDS011;674;45.552;-122.600;2023-03-08T03:00:44;5.47;;;2.57;;
1360;SDS011;674;45.552;-122.600;2023-03-08T03:03:13;8.07;;;5.27;;
1360;SDS011;674;45.552;-122.600;2023-03-08T03:05:42;13.00;;;8.33;;
1360;SDS011;674;45.552;-122.600;2023-03-08T03:08:11;4.80;;;3.47;;
1360;SDS011;674;45.552;-122.600;2023-03-08T03:10:40;5.13;;;4.00;;
1360;SDS011;674;45.552;-122.600;2023-03-08T03:13:08;6.30;;;4.13;;
1360;SDS011;674;45.552;-122.600;2023-03-08T03:15:37;4.43;;;3.20;;
1360;SDS011;674;45.552;-122.600;2023-03-08T03:18:06;5.30;;;3.07;;
1360;SDS011;674;45.552;-122.600;2023-03-08T03:20:35;3.80;;;2.50;;
1360;SDS011;674;45.552;-122.600;2023-03-08T03:23:03;3.10;;;1.83;;
1360;SDS011;674;45.552;-122.600;2023-03-08T03:25:35;4.13;;;2.00;;
1360;SDS011;674;45.552;-122.600;2023-03-08T03:28:04;3.50;;;1.50;;
1360;SDS011;674;45.552;-122.600;2023-03-08T03:30:33;4.40;;;2.03;;
1360;SDS011;674;45.552;-122.600;2023-03-08T03:33:01;2.85;;;2.22;;
1360;SDS011;674;45.552;-122.600;2023-03-08T03:35:30;3.63;;;2.70;;
1360;SDS011;674;45.552;-122.600;2023-03-08T03:37:58;3.28;;;2.50;;
1360;SDS011;674;45.552;-122.600;2023-03-08T03:40:27;2.13;;;1.30;;
1360;SDS011;674;45.552;-122.600;2023-03-08T03:42:55;4.53;;;3.40;;
1360;SDS011;674;45.552;-122.600;2023-03-08T03:45:24;2.17;;;1.35;;
1360;SDS011;674;45.552;-122.600;2023-03-08T03:47:52;2.30;;;1.20;;
1360;SDS011;674;45.552;-122.600;2023-03-08T03:50:21;3.38;;;0.90;;
1360;SDS011;674;45.552;-122.600;2023-03-08T03:52:49;2.80;;;1.40;;
1360;SDS011;674;45.552;-122.600;2023-03-08T03:55:18;5.03;;;1.52;;
1360;SDS011;674;45.552;-122.600;2023-03-08T03:57:46;4.18;;;1.30;;
1360;SDS011;674;45.552;-122.600;2023-03-08T04:00:15;3.63;;;1.70;;
1360;SDS011;674;45.552;-122.600;2023-03-08T04:02:44;3.20;;;1.50;;
1360;SDS011;674;45.552;-122.600;2023-03-08T04:05:12;2.42;;;1.10;;
1360;SDS011;674;45.552;-122.600;2023-03-08T04:07:41;3.85;;;2.45;;
1360;SDS011;674;45.552;-122.600;2023-03-08T04:10:09;3.05;;;1.67;;
1360;SDS011;674;45.552;-122.600;2023-03-08T04:12:38;2.83;;;1.50;;
1360;SDS011;674;45.552;-122.600;2023-03-08T04:15:06;3.10;;;1.80;;
1360;SDS011;674;45.552;-122.600;2023-03-08T04:17:35;3.00;;;1.70;;
1360;SDS011;674;45.552;-122.600;2023-03-08T04:20:04;4.57;;;2.50;;
1360;SDS011;674;45.552;-122.600;2023-03-08T04:22:33;4.05;;;2.47;;
1360;SDS011;674;45.552;-122.600;2023-03-08T04:25:02;3.30;;;2.10;;
1360;SDS011;674;45.552;-122.600;2023-03-08T04:27:31;3.00;;;1.85;;
1360;SDS011;674;45.552;-122.600;2023-03-08T04:29:59;3.90;;;2.90;;
1360;SDS011;674;45.552;-122.600;2023-03-08T04:32:30;3.20;;;2.30;;
1360;SDS011;674;45.552;-122.600;2023-03-08T04:34:59;3.40;;;2.22;;
1360;SDS011;674;45.552;-122.600;2023-03-08T04:37:28;4.55;;;2.00;;
1360;SDS011;674;45.552;-122.600;2023-03-08T04:39:56;3.35;;;2.20;;
1360;SDS011;674;45.552;-122.600;2023-03-08T04:42:25;4.50;;;2.85;;
1360;SDS011;674;45.552;-122.600;2023-03-08T04:44:53;5.57;;;3.17;;
1360;SDS011;674;45.552;-122.600;2023-03-08T04:47:22;7.20;;;4.45;;
1360;SDS011;674;45.552;-122.600;2023-03-08T04:49:50;4.70;;;2.85;;
1360;SDS011;674;45.552;-122.600;2023-03-08T04:52:19;6.32;;;4.50;;
1360;SDS011;674;45.552;-122.600;2023-03-08T04:54:47;6.05;;;5.30;;
1360;SDS011;674;45.552;-122.600;2023-03-08T04:57:16;5.10;;;3.70;;
1360;SDS011;674;45.552;-122.600;2023-03-08T04:59:46;5.80;;;4.65;;
1360;SDS011;674;45.552;-122.600;2023-03-08T05:02:14;4.30;;;3.10;;
1360;SDS011;674;45.552;-122.600;2023-03-08T05:04:43;3.88;;;2.92;;
1360;SDS011;674;45.552;-122.600;2023-03-08T05:07:12;4.28;;;2.75;;
1360;SDS011;674;45.552;-122.600;2023-03-08T05:09:40;4.72;;;2.65;;
1360;SDS011;674;45.552;-122.600;2023-03-08T05:12:08;3.80;;;2.65;;
1360;SDS011;674;45.552;-122.600;2023-03-08T05:14:37;4.30;;;3.00;;
1360;SDS011;674;45.552;-122.600;2023-03-08T05:17:05;4.97;;;3.25;;
1360;SDS011;674;45.552;-122.600;2023-03-08T05:19:34;6.72;;;4.00;;
1360;SDS011;674;45.552;-122.600;2023-03-08T05:22:03;4.45;;;3.53;;
1360;SDS011;674;45.552;-122.600;2023-03-08T05:24:32;5.32;;;4.25;;
1360;SDS011;674;45.552;-122.600;2023-03-08T05:27:00;5.00;;;3.00;;
1360;SDS011;674;45.552;-122.600;2023-03-08T05:29:32;4.40;;;2.72;;
1360;SDS011;674;45.552;-122.600;2023-03-08T05:32:03;5.63;;;3.60;;
1360;SDS011;674;45.552;-122.600;2023-03-08T05:34:32;4.85;;;3.05;;
1360;SDS011;674;45.552;-122.600;2023-03-08T05:37:01;4.65;;;3.75;;
1360;SDS011;674;45.552;-122.600;2023-03-08T05:39:29;5.90;;;4.25;;
1360;SDS011;674;45.552;-122.600;2023-03-08T05:41:58;7.65;;;4.35;;
1360;SDS011;674;45.552;-122.600;2023-03-08T05:44:26;7.30;;;6.13;;
1360;SDS011;674;45.552;-122.600;2023-03-08T05:46:55;9.77;;;8.05;;
1360;SDS011;674;45.552;-122.600;2023-03-08T05:49:24;10.93;;;9.18;;
1360;SDS011;674;45.552;-122.600;2023-03-08T05:51:52;10.55;;;9.20;;
1360;SDS011;674;45.552;-122.600;2023-03-08T05:54:21;12.50;;;9.15;;
1360;SDS011;674;45.552;-122.600;2023-03-08T05:56:49;12.18;;;8.13;;
1360;SDS011;674;45.552;-122.600;2023-03-08T05:59:17;9.52;;;7.03;;
1360;SDS011;674;45.552;-122.600;2023-03-08T06:01:46;12.57;;;8.10;;
1360;SDS011;674;45.552;-122.600;2023-03-08T06:04:15;8.05;;;6.10;;
1360;SDS011;674;45.552;-122.600;2023-03-08T06:06:43;10.95;;;6.55;;
1360;SDS011;674;45.552;-122.600;2023-03-08T06:09:12;8.18;;;5.35;;
1360;SDS011;674;45.552;-122.600;2023-03-08T06:11:40;8.30;;;5.25;;
1360;SDS011;674;45.552;-122.600;2023-03-08T06:14:09;7.07;;;5.78;;
1360;SDS011;674;45.552;-122.600;2023-03-08T06:16:38;5.00;;;3.60;;
1360;SDS011;674;45.552;-122.600;2023-03-08T06:19:07;4.35;;;2.40;;
1360;SDS011;674;45.552;-122.600;2023-03-08T06:21:36;6.03;;;3.30;;
1360;SDS011;674;45.552;-122.600;2023-03-08T06:24:05;3.90;;;2.40;;
1360;SDS011;674;45.552;-122.600;2023-03-08T06:26:33;6.05;;;4.00;;
1360;SDS011;674;45.552;-122.600;2023-03-08T06:29:02;5.85;;;3.70;;
1360;SDS011;674;45.552;-122.600;2023-03-08T06:31:31;4.75;;;3.10;;
1360;SDS011;674;45.552;-122.600;2023-03-08T06:33:59;5.95;;;3.20;;
1360;SDS011;674;45.552;-122.600;2023-03-08T06:36:28;5.78;;;3.20;;
1360;SDS011;674;45.552;-122.600;2023-03-08T06:38:56;7.70;;;4.07;;
1360;SDS011;674;45.552;-122.600;2023-03-08T06:41:26;5.47;;;3.78;;
1360;SDS011;674;45.552;-122.600;2023-03-08T06:43:56;5.40;;;3.85;;
1360;SDS011;674;45.552;-122.600;2023-03-08T06:46:25;4.82;;;3.97;;
1360;SDS011;674;45.552;-122.600;2023-03-08T06:48:54;4.13;;;3.10;;
1360;SDS011;674;45.552;-122.600;2023-03-08T06:51:22;4.30;;;3.45;;
1360;SDS011;674;45.552;-122.600;2023-03-08T06:53:51;4.93;;;3.65;;
1360;SDS011;674;45.552;-122.600;2023-03-08T06:56:19;8.57;;;5.18;;
1360;SDS011;674;45.552;-122.600;2023-03-08T06:58:47;4.10;;;2.53;;
1360;SDS011;674;45.552;-122.600;2023-03-08T07:01:16;4.00;;;2.95;;
1360;SDS011;674;45.552;-122.600;2023-03-08T07:03:44;5.15;;;3.78;;
1360;SDS011;674;45.552;-122.600;2023-03-08T07:06:15;4.55;;;3.55;;
1360;SDS011;674;45.552;-122.600;2023-03-08T07:08:43;3.00;;;2.20;;
1360;SDS011;674;45.552;-122.600;2023-03-08T07:11:12;6.28;;;2.63;;
1360;SDS011;674;45.552;-122.600;2023-03-08T07:13:40;4.20;;;2.00;;
1360;SDS011;674;45.552;-122.600;2023-03-08T07:16:10;3.95;;;2.60;;
1360;SDS011;674;45.552;-122.600;2023-03-08T07:18:40;4.00;;;2.40;;
1360;SDS011;674;45.552;-122.600;2023-03-08T07:21:08;4.32;;;3.35;;
1360;SDS011;674;45.552;-122.600;2023-03-08T07:23:37;6.03;;;3.90;;
1360;SDS011;674;45.552;-122.600;2023-03-08T07:26:06;5.20;;;4.05;;
1360;SDS011;674;45.552;-122.600;2023-03-08T07:28:35;4.55;;;3.67;;
1360;SDS011;674;45.552;-122.600;2023-03-08T07:31:04;5.97;;;3.90;;
1360;SDS011;674;45.552;-122.600;2023-03-08T07:33:32;4.93;;;3.58;;
1360;SDS011;674;45.552;-122.600;2023-03-08T07:36:01;4.43;;;3.35;;
1360;SDS011;674;45.552;-122.600;2023-03-08T07:38:29;10.88;;;4.10;;
1360;SDS011;674;45.552;-122.600;2023-03-08T07:40:58;7.25;;;5.43;;
1360;SDS011;674;45.552;-122.600;2023-03-08T07:43:26;6.75;;;6.05;;
1360;SDS011;674;45.552;-122.600;2023-03-08T07:45:57;11.70;;;6.50;;
1360;SDS011;674;45.552;-122.600;2023-03-08T07:48:28;7.30;;;5.90;;
1360;SDS011;674;45.552;-122.600;2023-03-08T07:51:01;5.50;;;4.85;;
1360;SDS011;674;45.552;-122.600;2023-03-08T07:53:36;6.00;;;5.32;;
1360;SDS011;674;45.552;-122.600;2023-03-08T07:56:05;6.40;;;5.38;;
1360;SDS011;674;45.552;-122.600;2023-03-08T07:58:33;13.30;;;7.90;;
1360;SDS011;674;45.552;-122.600;2023-03-08T08:01:11;9.05;;;6.20;;
1360;SDS011;674;45.552;-122.600;2023-03-08T08:03:41;6.60;;;5.68;;
1360;SDS011;674;45.552;-122.600;2023-03-08T08:06:09;13.90;;;7.50;;
1360;SDS011;674;45.552;-122.600;2023-03-08T08:08:38;8.43;;;6.55;;
1360;SDS011;674;45.552;-122.600;2023-03-08T08:11:13;6.05;;;5.10;;
1360;SDS011;674;45.552;-122.600;2023-03-08T08:13:42;6.95;;;6.25;;
1360;SDS011;674;45.552;-122.600;2023-03-08T08:16:13;6.85;;;5.95;;
1360;SDS011;674;45.552;-122.600;2023-03-08T08:18:43;7.45;;;5.90;;
1360;SDS011;674;45.552;-122.600;2023-03-08T08:21:13;8.85;;;6.47;;
1360;SDS011;674;45.552;-122.600;2023-03-08T08:23:42;8.82;;;7.25;;
1360;SDS011;674;45.552;-122.600;2023-03-08T08:26:12;11.88;;;7.80;;
1360;SDS011;674;45.552;-122.600;2023-03-08T08:28:43;8.57;;;7.07;;
1360;SDS011;674;45.552;-122.600;2023-03-08T08:31:14;10.13;;;7.82;;
1360;SDS011;674;45.552;-122.600;2023-03-08T08:33:45;9.40;;;7.20;;
1360;SDS011;674;45.552;-122.600;2023-03-08T08:36:18;8.68;;;7.07;;
1360;SDS011;674;45.552;-122.600;2023-03-08T08:38:47;29.88;;;17.83;;
1360;SDS011;674;45.552;-122.600;2023-03-08T08:41:17;24.65;;;16.08;;
1360;SDS011;674;45.552;-122.600;2023-03-08T08:43:47;25.38;;;19.10;;
1360;SDS011;674;45.552;-122.600;2023-03-08T08:46:16;27.42;;;18.55;;
1360;SDS011;674;45.552;-122.600;2023-03-08T08:48:44;29.45;;;21.00;;
1360;SDS011;674;45.552;-122.600;2023-03-08T08:51:13;31.02;;;21.17;;
1360;SDS011;674;45.552;-122.600;2023-03-08T08:53:42;26.20;;;17.98;;
1360;SDS011;674;45.552;-122.600;2023-03-08T08:56:14;29.88;;;17.98;;
1360;SDS011;674;45.552;-122.600;2023-03-08T08:58:54;27.55;;;18.77;;
1360;SDS011;674;45.552;-122.600;2023-03-08T09:01:30;22.27;;;15.52;;
1360;SDS011;674;45.552;-122.600;2023-03-08T09:03:59;20.70;;;15.68;;
1360;SDS011;674;45.552;-122.600;2023-03-08T09:06:28;20.95;;;15.20;;
1360;SDS011;674;45.552;-122.600;2023-03-08T09:08:57;21.35;;;14.85;;
1360;SDS011;674;45.552;-122.600;2023-03-08T09:11:26;25.67;;;17.13;;
1360;SDS011;674;45.552;-122.600;2023-03-08T09:13:55;20.25;;;15.18;;
1360;SDS011;674;45.552;-122.600;2023-03-08T09:16:25;18.73;;;13.65;;
1360;SDS011;674;45.552;-122.600;2023-03-08T09:18:59;16.15;;;12.60;;
1360;SDS011;674;45.552;-122.600;2023-03-08T09:21:30;20.23;;;14.88;;
1360;SDS011;674;45.552;-122.600;2023-03-08T09:24:01;21.75;;;17.20;;
1360;SDS011;674;45.552;-122.600;2023-03-08T09:26:32;17.67;;;12.80;;
1360;SDS011;674;45.552;-122.600;2023-03-08T09:29:01;16.40;;;13.40;;
1360;SDS011;674;45.552;-122.600;2023-03-08T09:31:34;17.10;;;11.82;;
1360;SDS011;674;45.552;-122.600;2023-03-08T09:34:04;14.30;;;11.63;;
1360;SDS011;674;45.552;-122.600;2023-03-08T09:36:35;22.17;;;18.02;;
1360;SDS011;674;45.552;-122.600;2023-03-08T09:39:09;18.13;;;14.10;;
1360;SDS011;674;45.552;-122.600;2023-03-08T09:46:47;18.17;;;13.70;;
1360;SDS011;674;45.552;-122.600;2023-03-08T09:49:21;22.08;;;17.25;;
1360;SDS011;674;45.552;-122.600;2023-03-08T09:52:09;20.23;;;15.50;;
1360;SDS011;674;45.552;-122.600;2023-03-08T09:54:38;21.80;;;15.63;;
1360;SDS011;674;45.552;-122.600;2023-03-08T09:57:18;21.25;;;16.85;;
1360;SDS011;674;45.552;-122.600;2023-03-08T10:00:03;23.52;;;19.00;;
1360;SDS011;674;45.552;-122.600;2023-03-08T10:05:32;20.13;;;14.75;;
1360;SDS011;674;45.552;-122.600;2023-03-08T10:21:27;44.88;;;25.13;;
1360;SDS011;674;45.552;-122.600;2023-03-08T10:24:20;43.08;;;23.88;;
1360;SDS011;674;45.552;-122.600;2023-03-08T10:26:53;39.10;;;23.55;;
1360;SDS011;674;45.552;-122.600;2023-03-08T10:29:30;34.95;;;23.00;;
1360;SDS011;674;45.552;-122.600;2023-03-08T10:31:58;41.60;;;23.95;;
1360;SDS011;674;45.552;-122.600;2023-03-08T10:34:30;36.38;;;23.83;;
1360;SDS011;674;45.552;-122.600;2023-03-08T10:37:03;40.53;;;22.30;;
1360;SDS011;674;45.552;-122.600;2023-03-08T10:39:36;29.23;;;18.95;;
1360;SDS011;674;45.552;-122.600;2023-03-08T10:42:14;32.30;;;20.55;;
1360;SDS011;674;45.552;-122.600;2023-03-08T10:45:03;103.00;;;30.77;;
1360;SDS011;674;45.552;-122.600;2023-03-08T10:47:52;31.33;;;20.60;;
1360;SDS011;674;45.552;-122.600;2023-03-08T10:50:32;44.95;;;21.85;;
1360;SDS011;674;45.552;-122.600;2023-03-08T10:53:09;33.60;;;19.60;;
1360;SDS011;674;45.552;-122.600;2023-03-08T10:55:47;41.25;;;19.98;;
1360;SDS011;674;45.552;-122.600;2023-03-08T10:58:36;236.40;;;34.75;;
1360;SDS011;674;45.552;-122.600;2023-03-08T11:01:28;124.32;;;17.80;;
1360;SDS011;674;45.552;-122.600;2023-03-08T11:06:32;71.22;;;12.45;;
1360;SDS011;674;45.552;-122.600;2023-03-08T11:09:05;40.17;;;11.15;;
1360;SDS011;674;45.552;-122.600;2023-03-08T11:11:56;51.75;;;12.40;;
1360;SDS011;674;45.552;-122.600;2023-03-08T11:14:26;45.22;;;13.73;;
1360;SDS011;674;45.552;-122.600;2023-03-08T11:17:01;62.15;;;13.52;;
1360;SDS011;674;45.552;-122.600;2023-03-08T11:22:37;21.02;;;11.02;;
1360;SDS011;674;45.552;-122.600;2023-03-08T11:31:13;29.45;;;16.17;;
1360;SDS011;674;45.552;-122.600;2023-03-08T11:34:03;19.77;;;12.68;;
1360;SDS011;674;45.552;-122.600;2023-03-08T11:37:01;23.38;;;15.15;;
1360;SDS011;674;45.552;-122.600;2023-03-08T11:39:44;20.67;;;13.45;;
1360;SDS011;674;45.552;-122.600;2023-03-08T11:42:21;11.00;;;7.43;;
1360;SDS011;674;45.552;-122.600;2023-03-08T11:50:32;11.98;;;8.85;;
1360;SDS011;674;45.552;-122.600;2023-03-08T11:56:05;12.52;;;7.45;;
1360;SDS011;674;45.552;-122.600;2023-03-08T12:01:14;10.05;;;8.60;;
1360;SDS011;674;45.552;-122.600;2023-03-08T12:03:45;17.25;;;11.60;;
1360;SDS011;674;45.552;-122.600;2023-03-08T12:06:33;12.32;;;9.02;;
1360;SDS011;674;45.552;-122.600;2023-03-08T12:09:21;13.43;;;9.45;;
1360;SDS011;674;45.552;-122.600;2023-03-08T12:14:59;11.57;;;7.97;;
1360;SDS011;674;45.552;-122.600;2023-03-08T12:17:52;10.10;;;7.95;;
1360;SDS011;674;45.552;-122.600;2023-03-08T12:20:42;15.95;;;11.27;;
1360;SDS011;674;45.552;-122.600;2023-03-08T12:23:17;11.07;;;8.90;;
1360;SDS011;674;45.552;-122.600;2023-03-08T12:26:21;20.50;;;14.25;;
1360;SDS011;674;45.552;-122.600;2023-03-08T12:29:14;9.65;;;8.48;;
1360;SDS011;674;45.552;-122.600;2023-03-08T12:31:50;10.68;;;9.55;;
1360;SDS011;674;45.552;-122.600;2023-03-08T12:36:56;14.63;;;12.95;;
1360;SDS011;674;45.552;-122.600;2023-03-08T12:39:29;14.35;;;11.52;;
1360;SDS011;674;45.552;-122.600;2023-03-08T12:44:37;22.67;;;15.60;;
1360;SDS011;674;45.552;-122.600;2023-03-08T12:49:44;20.17;;;15.18;;
1360;SDS011;674;45.552;-122.600;2023-03-08T12:54:55;16.73;;;12.07;;
1360;SDS011;674;45.552;-122.600;2023-03-08T12:57:28;12.18;;;8.80;;
1360;SDS011;674;45.552;-122.600;2023-03-08T13:00:00;10.80;;;9.52;;
1360;SDS011;674;45.552;-122.600;2023-03-08T13:02:36;19.45;;;12.98;;
1360;SDS011;674;45.552;-122.600;2023-03-08T13:19:38;14.43;;;10.70;;
1360;SDS011;674;45.552;-122.600;2023-03-08T13:24:48;11.70;;;8.95;;
1360;SDS011;674;45.552;-122.600;2023-03-08T13:30:55;9.88;;;8.65;;
1360;SDS011;674;45.552;-122.600;2023-03-08T13:33:31;11.50;;;9.73;;
1360;SDS011;674;45.552;-122.600;2023-03-08T13:36:05;18.17;;;14.77;;
1360;SDS011;674;45.552;-122.600;2023-03-08T13:38:41;24.35;;;20.77;;
1360;SDS011;674;45.552;-122.600;2023-03-08T13:41:10;17.17;;;15.30;;
1360;SDS011;674;45.552;-122.600;2023-03-08T13:43:38;13.10;;;11.65;;
1360;SDS011;674;45.552;-122.600;2023-03-08T13:46:09;15.65;;;14.05;;
1360;SDS011;674;45.552;-122.600;2023-03-08T13:48:43;24.80;;;18.83;;
1360;SDS011;674;45.552;-122.600;2023-03-08T13:51:14;17.73;;;15.40;;
1360;SDS011;674;45.552;-122.600;2023-03-08T13:53:45;15.20;;;13.60;;
1360;SDS011;674;45.552;-122.600;2023-03-08T13:56:32;17.27;;;15.23;;
1360;SDS011;674;45.552;-122.600;2023-03-08T13:59:00;13.48;;;12.07;;
1360;SDS011;674;45.552;-122.600;2023-03-08T14:01:29;16.75;;;15.15;;
1360;SDS011;674;45.552;-122.600;2023-03-08T14:03:57;14.98;;;13.48;;
1360;SDS011;674;45.552;-122.600;2023-03-08T14:06:36;13.57;;;12.15;;
1360;SDS011;674;45.552;-122.600;2023-03-08T14:09:08;20.67;;;16.83;;
1360;SDS011;674;45.552;-122.600;2023-03-08T14:11:37;16.45;;;13.98;;
1360;SDS011;674;45.552;-122.600;2023-03-08T14:14:13;12.23;;;10.65;;
1360;SDS011;674;45.552;-122.600;2023-03-08T14:16:59;11.52;;;10.43;;
1360;SDS011;674;45.552;-122.600;2023-03-08T14:19:32;20.38;;;15.93;;
1360;SDS011;674;45.552;-122.600;2023-03-08T14:22:14;14.70;;;13.23;;
1360;SDS011;674;45.552;-122.600;2023-03-08T14:25:03;29.40;;;22.40;;
1360;SDS011;674;45.552;-122.600;2023-03-08T14:30:10;12.50;;;11.23;;
1360;SDS011;674;45.552;-122.600;2023-03-08T14:35:43;14.52;;;12.90;;
1360;SDS011;674;45.552;-122.600;2023-03-08T14:38:27;13.35;;;11.95;;
1360;SDS011;674;45.552;-122.600;2023-03-08T14:40:58;14.50;;;12.75;;
1360;SDS011;674;45.552;-122.600;2023-03-08T14:43:32;19.38;;;17.08;;
1360;SDS011;674;45.552;-122.600;2023-03-08T14:46:01;13.18;;;11.77;;
1360;SDS011;674;45.552;-122.600;2023-03-08T14:48:34;22.23;;;17.85;;
1360;SDS011;674;45.552;-122.600;2023-03-08T14:53:37;18.98;;;16.98;;
1360;SDS011;674;45.552;-122.600;2023-03-08T14:56:14;18.42;;;16.38;;
1360;SDS011;674;45.552;-122.600;2023-03-08T14:58:44;19.20;;;17.20;;
1360;SDS011;674;45.552;-122.600;2023-03-08T15:01:34;26.50;;;20.73;;
1360;SDS011;674;45.552;-122.600;2023-03-08T15:04:09;27.20;;;21.60;;
1360;SDS011;674;45.552;-122.600;2023-03-08T15:06:48;17.17;;;14.20;;
1360;SDS011;674;45.552;-122.600;2023-03-08T15:09:19;16.98;;;14.25;;
1360;SDS011;674;45.552;-122.600;2023-03-08T15:11:49;18.95;;;15.93;;
1360;SDS011;674;45.552;-122.600;2023-03-08T15:14:20;18.63;;;16.50;;
1360;SDS011;674;45.552;-122.600;2023-03-08T15:16:48;19.50;;;15.60;;
1360;SDS011;674;45.552;-122.600;2023-03-08T15:19:17;17.15;;;15.45;;
1360;SDS011;674;45.552;-122.600;2023-03-08T15:21:46;35.03;;;23.38;;
1360;SDS011;674;45.552;-122.600;2023-03-08T15:24:16;18.05;;;16.05;;
1360;SDS011;674;45.552;-122.600;2023-03-08T15:26:45;18.50;;;15.02;;
1360;SDS011;674;45.552;-122.600;2023-03-08T15:31:53;20.10;;;16.33;;
1360;SDS011;674;45.552;-122.600;2023-03-08T15:34:23;20.63;;;17.83;;
1360;SDS011;674;45.552;-122.600;2023-03-08T15:36:54;22.58;;;19.00;;
1360;SDS011;674;45.552;-122.600;2023-03-08T15:39:22;28.73;;;22.65;;
1360;SDS011;674;45.552;-122.600;2023-03-08T15:41:51;33.13;;;24.20;;
1360;SDS011;674;45.552;-122.600;2023-03-08T15:44:19;33.47;;;24.23;;
1360;SDS011;674;45.552;-122.600;2023-03-08T15:46:48;21.80;;;18.65;;
1360;SDS011;674;45.552;-122.600;2023-03-08T15:49:18;22.42;;;17.67;;
1360;SDS011;674;45.552;-122.600;2023-03-08T15:51:47;23.05;;;18.65;;
1360;SDS011;674;45.552;-122.600;2023-03-08T15:54:16;22.30;;;17.77;;
1360;SDS011;674;45.552;-122.600;2023-03-08T15:56:44;20.75;;;16.63;;
1360;SDS011;674;45.552;-122.600;2023-03-08T15:59:12;23.65;;;15.70;;
1360;SDS011;674;45.552;-122.600;2023-03-08T16:01:42;25.42;;;19.90;;
1360;SDS011;674;45.552;-122.600;2023-03-08T16:04:10;23.17;;;18.58;;
1360;SDS011;674;45.552;-122.600;2023-03-08T16:06:40;20.77;;;16.38;;
1360;SDS011;674;45.552;-122.600;2023-03-08T16:09:10;42.67;;;27.30;;
1360;SDS011;674;45.552;-122.600;2023-03-08T16:11:38;38.55;;;26.10;;
1360;SDS011;674;45.552;-122.600;2023-03-08T16:14:07;37.05;;;26.88;;
1360;SDS011;674;45.552;-122.600;2023-03-08T16:16:35;39.83;;;27.75;;
1360;SDS011;674;45.552;-122.600;2023-03-08T16:19:11;46.88;;;27.80;;
1360;SDS011;674;45.552;-122.600;2023-03-08T16:21:40;31.50;;;22.02;;
1360;SDS011;674;45.552;-122.600;2023-03-08T16:24:09;33.28;;;23.85;;
1360;SDS011;674;45.552;-122.600;2023-03-08T16:26:38;38.92;;;25.63;;
1360;SDS011;674;45.552;-122.600;2023-03-08T16:29:07;38.30;;;23.98;;
1360;SDS011;674;45.552;-122.600;2023-03-08T16:31:35;33.13;;;21.75;;
1360;SDS011;674;45.552;-122.600;2023-03-08T16:34:04;35.05;;;20.58;;